sensor_id;sensor_type;location;lat;lon;timestamp;temperature;humidity
15239;DHT22;7722;53.274;9.500;2024-01-16T00:00:24;-0.90;99.90
15239;DHT22;7722;53.274;9.500;2024-01-16T00:02:54;-0.90;99.90
15239;DHT22;7722;53.274;9.500;2024-01-16T00:05:21;-1.00;99.90
15239;DHT22;7722;53.274;9.500;2024-01-16T00:07:48;-1.00;99.90
15239;DHT22;7722;53.274;9.500;2024-01-16T00:10:15;-1.00;99.90
15239;DHT22;7722;53.274;9.500;2024-01-16T00:12:42;-1.00;99.90
15239;DHT22;7722;53.274;9.500;2024-01-16T00:15:10;-1.10;99.90
15239;DHT22;7722;53.274;9.500;2024-01-16T00:17:37;-1.20;99.90
15239;DHT22;7722;53.274;9.500;2024-01-16T00:20:06;-1.20;99.90
15239;DHT22;7722;53.274;9.500;2024-01-16T00:22:34;-1.20;99.90
15239;DHT22;7722;53.274;9.500;2024-01-16T00:25:01;-1.30;99.90
15239;DHT22;7722;53.274;9.500;2024-01-16T00:27:28;-1.30;99.90
15239;DHT22;7722;53.274;9.500;2024-01-16T00:29:55;-1.30;99.90
15239;DHT22;7722;53.274;9.500;2024-01-16T00:32:22;-1.30;99.90
15239;DHT22;7722;53.274;9.500;2024-01-16T00:34:49;-1.40;99.90
15239;DHT22;7722;53.274;9.500;2024-01-16T00:37:18;-1.50;99.90
15239;DHT22;7722;53.274;9.500;2024-01-16T00:39:45;-1.50;99.90
15239;DHT22;7722;53.274;9.500;2024-01-16T00:42:12;-1.60;99.90
15239;DHT22;7722;53.274;9.500;2024-01-16T00:44:39;-1.60;99.90
15239;DHT22;7722;53.274;9.500;2024-01-16T00:47:06;-1.60;99.90
15239;DHT22;7722;53.274;9.500;2024-01-16T00:49:35;-1.60;99.90
15239;DHT22;7722;53.274;9.500;2024-01-16T00:52:03;-1.60;99.90
15239;DHT22;7722;53.274;9.500;2024-01-16T00:54:32;-1.60;99.90
15239;DHT22;7722;53.274;9.500;2024-01-16T00:56:59;-1.60;99.90
15239;DHT22;7722;53.274;9.500;2024-01-16T00:59:26;-1.70;99.90
15239;DHT22;7722;53.274;9.500;2024-01-16T01:01:53;-1.70;99.90
15239;DHT22;7722;53.274;9.500;2024-01-16T01:04:20;-1.70;99.90
15239;DHT22;7722;53.274;9.500;2024-01-16T01:06:47;-1.60;99.90
15239;DHT22;7722;53.274;9.500;2024-01-16T01:09:14;-1.50;99.90
15239;DHT22;7722;53.274;9.500;2024-01-16T01:11:43;-1.50;99.90
15239;DHT22;7722;53.274;9.500;2024-01-16T01:14:10;-1.50;99.90
15239;DHT22;7722;53.274;9.500;2024-01-16T01:16:37;-1.60;99.90
15239;DHT22;7722;53.274;9.500;2024-01-16T01:19:05;-1.60;99.90
15239;DHT22;7722;53.274;9.500;2024-01-16T01:21:32;-1.60;99.90
15239;DHT22;7722;53.274;9.500;2024-01-16T01:23:59;-1.60;99.90
15239;DHT22;7722;53.274;9.500;2024-01-16T01:26:26;-1.60;99.90
15239;DHT22;7722;53.274;9.500;2024-01-16T01:28:54;-1.60;99.90
15239;DHT22;7722;53.274;9.500;2024-01-16T01:31:22;-1.60;99.90
15239;DHT22;7722;53.274;9.500;2024-01-16T01:33:50;-1.50;99.90
15239;DHT22;7722;53.274;9.500;2024-01-16T01:36:17;-1.60;99.90
15239;DHT22;7722;53.274;9.500;2024-01-16T01:38:44;-1.60;99.90
15239;DHT22;7722;53.274;9.500;2024-01-16T01:41:11;-1.60;99.90
15239;DHT22;7722;53.274;9.500;2024-01-16T01:43:38;-1.50;99.90
15239;DHT22;7722;53.274;9.500;2024-01-16T01:46:13;-1.50;99.90
15239;DHT22;7722;53.274;9.500;2024-01-16T01:48:42;-1.50;99.90
15239;DHT22;7722;53.274;9.500;2024-01-16T01:51:10;-1.50;99.90
15239;DHT22;7722;53.274;9.500;2024-01-16T01:53:39;-1.40;99.90
15239;DHT22;7722;53.274;9.500;2024-01-16T01:56:08;-1.40;99.90
15239;DHT22;7722;53.274;9.500;2024-01-16T01:58:37;-1.30;99.90
15239;DHT22;7722;53.274;9.500;2024-01-16T02:01:06;-1.30;99.90
15239;DHT22;7722;53.274;9.500;2024-01-16T02:03:39;-1.30;99.90
15239;DHT22;7722;53.274;9.500;2024-01-16T02:06:07;-1.30;99.90
15239;DHT22;7722;53.274;9.500;2024-01-16T02:08:34;-1.30;99.90
15239;DHT22;7722;53.274;9.500;2024-01-16T02:11:02;-1.30;99.90
15239;DHT22;7722;53.274;9.500;2024-01-16T02:13:29;-1.30;99.90
15239;DHT22;7722;53.274;9.500;2024-01-16T02:15:57;-1.30;99.90
15239;DHT22;7722;53.274;9.500;2024-01-16T02:18:24;-1.20;99.90
15239;DHT22;7722;53.274;9.500;2024-01-16T02:20:53;-1.20;99.90
15239;DHT22;7722;53.274;9.500;2024-01-16T02:23:26;-1.20;99.90
15239;DHT22;7722;53.274;9.500;2024-01-16T02:25:54;-1.10;99.90
15239;DHT22;7722;53.274;9.500;2024-01-16T02:28:21;-1.10;99.90
15239;DHT22;7722;53.274;9.500;2024-01-16T02:30:48;-1.00;99.90
15239;DHT22;7722;53.274;9.500;2024-01-16T02:33:15;-1.00;99.90
15239;DHT22;7722;53.274;9.500;2024-01-16T02:35:42;-1.00;99.90
15239;DHT22;7722;53.274;9.500;2024-01-16T02:38:09;-1.10;99.90
15239;DHT22;7722;53.274;9.500;2024-01-16T02:40:38;-1.00;99.90
15239;DHT22;7722;53.274;9.500;2024-01-16T02:43:06;-1.00;99.90
15239;DHT22;7722;53.274;9.500;2024-01-16T02:45:33;-0.90;99.90
15239;DHT22;7722;53.274;9.500;2024-01-16T02:48:00;-0.90;99.90
15239;DHT22;7722;53.274;9.500;2024-01-16T02:50:29;-0.90;99.90
15239;DHT22;7722;53.274;9.500;2024-01-16T02:52:56;-0.90;99.90
15239;DHT22;7722;53.274;9.500;2024-01-16T02:55:23;-0.90;99.90
15239;DHT22;7722;53.274;9.500;2024-01-16T02:57:51;-0.80;99.90
15239;DHT22;7722;53.274;9.500;2024-01-16T03:00:18;-0.70;99.90
15239;DHT22;7722;53.274;9.500;2024-01-16T03:02:46;-0.70;99.90
15239;DHT22;7722;53.274;9.500;2024-01-16T03:05:13;-0.70;99.90
15239;DHT22;7722;53.274;9.500;2024-01-16T03:07:41;-0.70;99.90
15239;DHT22;7722;53.274;9.500;2024-01-16T03:10:08;-0.70;99.90
15239;DHT22;7722;53.274;9.500;2024-01-16T03:12:35;-0.70;99.90
15239;DHT22;7722;53.274;9.500;2024-01-16T03:15:05;-0.70;99.90
15239;DHT22;7722;53.274;9.500;2024-01-16T03:17:32;-0.60;99.90
15239;DHT22;7722;53.274;9.500;2024-01-16T03:19:59;-0.60;99.90
15239;DHT22;7722;53.274;9.500;2024-01-16T03:22:26;-0.70;99.90
15239;DHT22;7722;53.274;9.500;2024-01-16T03:24:53;-0.70;99.90
15239;DHT22;7722;53.274;9.500;2024-01-16T03:27:20;-0.60;99.90
15239;DHT22;7722;53.274;9.500;2024-01-16T03:29:47;-0.70;99.90
15239;DHT22;7722;53.274;9.500;2024-01-16T03:32:16;-0.80;99.90
15239;DHT22;7722;53.274;9.500;2024-01-16T03:34:43;-0.80;99.90
15239;DHT22;7722;53.274;9.500;2024-01-16T03:37:10;-0.90;99.90
15239;DHT22;7722;53.274;9.500;2024-01-16T03:39:37;-0.90;99.90
15239;DHT22;7722;53.274;9.500;2024-01-16T03:42:04;-0.90;99.90
15239;DHT22;7722;53.274;9.500;2024-01-16T03:44:32;-0.90;99.90
15239;DHT22;7722;53.274;9.500;2024-01-16T03:46:59;-1.00;99.90
15239;DHT22;7722;53.274;9.500;2024-01-16T03:49:27;-1.00;99.90
15239;DHT22;7722;53.274;9.500;2024-01-16T03:51:54;-0.80;99.90
15239;DHT22;7722;53.274;9.500;2024-01-16T03:54:21;-0.90;99.90
15239;DHT22;7722;53.274;9.500;2024-01-16T03:56:48;-1.00;99.90
15239;DHT22;7722;53.274;9.500;2024-01-16T03:59:16;-1.00;99.90
15239;DHT22;7722;53.274;9.500;2024-01-16T04:01:43;-1.20;99.90
15239;DHT22;7722;53.274;9.500;2024-01-16T04:04:11;-1.30;99.90
15239;DHT22;7722;53.274;9.500;2024-01-16T04:06:39;-1.30;99.90
15239;DHT22;7722;53.274;9.500;2024-01-16T04:09:07;-1.40;99.90
15239;DHT22;7722;53.274;9.500;2024-01-16T04:11:35;-1.30;99.90
15239;DHT22;7722;53.274;9.500;2024-01-16T04:14:02;-1.30;99.90
15239;DHT22;7722;53.274;9.500;2024-01-16T04:16:29;-1.20;99.90
15239;DHT22;7722;53.274;9.500;2024-01-16T04:18:56;-1.20;99.90
15239;DHT22;7722;53.274;9.500;2024-01-16T04:21:24;-1.20;99.90
15239;DHT22;7722;53.274;9.500;2024-01-16T04:23:52;-1.20;99.90
15239;DHT22;7722;53.274;9.500;2024-01-16T04:26:19;-1.20;99.90
15239;DHT22;7722;53.274;9.500;2024-01-16T04:28:47;-1.20;99.90
15239;DHT22;7722;53.274;9.500;2024-01-16T04:31:14;-1.30;99.90
15239;DHT22;7722;53.274;9.500;2024-01-16T04:33:43;-1.40;99.90
15239;DHT22;7722;53.274;9.500;2024-01-16T04:36:10;-1.40;99.90
15239;DHT22;7722;53.274;9.500;2024-01-16T04:38:37;-1.20;99.90
15239;DHT22;7722;53.274;9.500;2024-01-16T04:41:05;-1.20;99.90
15239;DHT22;7722;53.274;9.500;2024-01-16T04:43:32;-1.20;99.90
15239;DHT22;7722;53.274;9.500;2024-01-16T04:45:59;-1.10;99.90
15239;DHT22;7722;53.274;9.500;2024-01-16T04:48:27;-1.10;99.90
15239;DHT22;7722;53.274;9.500;2024-01-16T04:50:54;-1.00;99.90
15239;DHT22;7722;53.274;9.500;2024-01-16T04:53:22;-1.00;99.90
15239;DHT22;7722;53.274;9.500;2024-01-16T04:55:49;-1.00;99.90
15239;DHT22;7722;53.274;9.500;2024-01-16T04:58:18;-1.00;99.90
15239;DHT22;7722;53.274;9.500;2024-01-16T05:00:45;-1.00;99.90
15239;DHT22;7722;53.274;9.500;2024-01-16T05:03:12;-0.90;99.90
15239;DHT22;7722;53.274;9.500;2024-01-16T05:05:39;-0.90;99.90
15239;DHT22;7722;53.274;9.500;2024-01-16T05:08:07;-0.90;99.90
15239;DHT22;7722;53.274;9.500;2024-01-16T05:10:34;-0.90;99.90
15239;DHT22;7722;53.274;9.500;2024-01-16T05:13:01;-0.80;99.90
15239;DHT22;7722;53.274;9.500;2024-01-16T05:15:30;-0.80;99.90
15239;DHT22;7722;53.274;9.500;2024-01-16T05:17:57;-0.80;99.90
15239;DHT22;7722;53.274;9.500;2024-01-16T05:20:24;-0.80;99.90
15239;DHT22;7722;53.274;9.500;2024-01-16T05:22:51;-0.80;99.90
15239;DHT22;7722;53.274;9.500;2024-01-16T05:25:18;-0.80;99.90
15239;DHT22;7722;53.274;9.500;2024-01-16T05:27:47;-0.80;99.90
15239;DHT22;7722;53.274;9.500;2024-01-16T05:30:15;-0.80;99.90
15239;DHT22;7722;53.274;9.500;2024-01-16T05:32:44;-0.80;99.90
15239;DHT22;7722;53.274;9.500;2024-01-16T05:35:11;-0.70;99.90
15239;DHT22;7722;53.274;9.500;2024-01-16T05:37:39;-0.70;99.90
15239;DHT22;7722;53.274;9.500;2024-01-16T05:40:07;-0.70;99.90
15239;DHT22;7722;53.274;9.500;2024-01-16T05:42:35;-0.70;99.90
15239;DHT22;7722;53.274;9.500;2024-01-16T05:45:02;-0.60;99.90
15239;DHT22;7722;53.274;9.500;2024-01-16T05:47:29;-0.60;99.90
15239;DHT22;7722;53.274;9.500;2024-01-16T05:49:58;-0.60;99.90
15239;DHT22;7722;53.274;9.500;2024-01-16T05:52:25;-0.70;99.90
15239;DHT22;7722;53.274;9.500;2024-01-16T05:54:53;-0.80;99.90
15239;DHT22;7722;53.274;9.500;2024-01-16T05:57:23;-0.80;99.90
15239;DHT22;7722;53.274;9.500;2024-01-16T05:59:50;-0.80;99.90
15239;DHT22;7722;53.274;9.500;2024-01-16T06:02:18;-0.80;99.90
15239;DHT22;7722;53.274;9.500;2024-01-16T06:04:45;-0.80;99.90
15239;DHT22;7722;53.274;9.500;2024-01-16T06:07:14;-0.90;99.90
15239;DHT22;7722;53.274;9.500;2024-01-16T06:09:42;-0.80;99.90
15239;DHT22;7722;53.274;9.500;2024-01-16T06:12:09;-0.80;99.90
15239;DHT22;7722;53.274;9.500;2024-01-16T06:14:38;-0.80;99.90
15239;DHT22;7722;53.274;9.500;2024-01-16T06:17:05;-0.80;99.90
15239;DHT22;7722;53.274;9.500;2024-01-16T06:19:32;-0.80;99.90
15239;DHT22;7722;53.274;9.500;2024-01-16T06:22:00;-0.80;99.90
15239;DHT22;7722;53.274;9.500;2024-01-16T06:24:28;-0.80;99.90
15239;DHT22;7722;53.274;9.500;2024-01-16T06:27:02;-0.80;99.90
15239;DHT22;7722;53.274;9.500;2024-01-16T06:29:30;-0.90;99.90
15239;DHT22;7722;53.274;9.500;2024-01-16T06:31:57;-0.90;99.90
15239;DHT22;7722;53.274;9.500;2024-01-16T06:34:24;-0.90;99.90
15239;DHT22;7722;53.274;9.500;2024-01-16T06:36:51;-1.00;99.90
15239;DHT22;7722;53.274;9.500;2024-01-16T06:39:18;-1.00;99.90
15239;DHT22;7722;53.274;9.500;2024-01-16T06:41:47;-1.00;99.90
15239;DHT22;7722;53.274;9.500;2024-01-16T06:44:14;-1.00;99.90
15239;DHT22;7722;53.274;9.500;2024-01-16T06:46:42;-1.00;99.90
15239;DHT22;7722;53.274;9.500;2024-01-16T06:49:09;-1.00;99.90
15239;DHT22;7722;53.274;9.500;2024-01-16T06:51:36;-1.00;99.90
15239;DHT22;7722;53.274;9.500;2024-01-16T06:54:04;-1.10;99.90
15239;DHT22;7722;53.274;9.500;2024-01-16T06:56:32;-1.10;99.90
15239;DHT22;7722;53.274;9.500;2024-01-16T06:59:00;-1.10;99.90
15239;DHT22;7722;53.274;9.500;2024-01-16T07:01:27;-1.10;99.90
15239;DHT22;7722;53.274;9.500;2024-01-16T07:03:55;-1.10;99.90
15239;DHT22;7722;53.274;9.500;2024-01-16T07:06:22;-1.10;99.90
15239;DHT22;7722;53.274;9.500;2024-01-16T07:08:49;-1.20;99.90
15239;DHT22;7722;53.274;9.500;2024-01-16T07:11:16;-1.20;99.90
15239;DHT22;7722;53.274;9.500;2024-01-16T07:13:43;-1.20;99.90
15239;DHT22;7722;53.274;9.500;2024-01-16T07:16:13;-1.20;99.90
15239;DHT22;7722;53.274;9.500;2024-01-16T07:18:40;-1.20;99.90
15239;DHT22;7722;53.274;9.500;2024-01-16T07:21:16;-1.20;99.90
15239;DHT22;7722;53.274;9.500;2024-01-16T07:23:43;-1.20;99.90
15239;DHT22;7722;53.274;9.500;2024-01-16T07:26:11;-1.20;99.90
15239;DHT22;7722;53.274;9.500;2024-01-16T07:28:38;-1.10;99.90
15239;DHT22;7722;53.274;9.500;2024-01-16T07:31:05;-1.00;99.90
15239;DHT22;7722;53.274;9.500;2024-01-16T07:33:33;-1.10;99.90
15239;DHT22;7722;53.274;9.500;2024-01-16T07:36:04;-1.10;99.90
15239;DHT22;7722;53.274;9.500;2024-01-16T07:38:31;-1.10;99.90
15239;DHT22;7722;53.274;9.500;2024-01-16T07:41:01;-1.00;99.90
15239;DHT22;7722;53.274;9.500;2024-01-16T07:43:29;-1.00;99.90
15239;DHT22;7722;53.274;9.500;2024-01-16T07:45:56;-0.90;99.90
15239;DHT22;7722;53.274;9.500;2024-01-16T07:48:23;-0.90;99.90
15239;DHT22;7722;53.274;9.500;2024-01-16T07:50:51;-0.80;99.90
15239;DHT22;7722;53.274;9.500;2024-01-16T07:53:19;-0.80;99.90
15239;DHT22;7722;53.274;9.500;2024-01-16T07:55:46;-0.80;99.90
15239;DHT22;7722;53.274;9.500;2024-01-16T07:58:14;-0.80;99.90
15239;DHT22;7722;53.274;9.500;2024-01-16T08:00:41;-0.80;99.90
15239;DHT22;7722;53.274;9.500;2024-01-16T08:03:09;-0.70;99.90
15239;DHT22;7722;53.274;9.500;2024-01-16T08:05:37;-0.70;99.90
15239;DHT22;7722;53.274;9.500;2024-01-16T08:08:08;-0.80;99.90
15239;DHT22;7722;53.274;9.500;2024-01-16T08:10:36;-0.70;99.90
15239;DHT22;7722;53.274;9.500;2024-01-16T08:13:03;-0.60;99.90
15239;DHT22;7722;53.274;9.500;2024-01-16T08:15:31;-0.70;99.90
15239;DHT22;7722;53.274;9.500;2024-01-16T08:17:58;-0.70;99.90
15239;DHT22;7722;53.274;9.500;2024-01-16T08:20:25;-0.60;99.90
15239;DHT22;7722;53.274;9.500;2024-01-16T08:22:52;-0.50;99.90
15239;DHT22;7722;53.274;9.500;2024-01-16T08:25:21;-0.50;99.90
15239;DHT22;7722;53.274;9.500;2024-01-16T08:27:48;-0.60;99.90
15239;DHT22;7722;53.274;9.500;2024-01-16T08:30:15;-0.50;99.90
15239;DHT22;7722;53.274;9.500;2024-01-16T08:32:42;-0.40;99.90
15239;DHT22;7722;53.274;9.500;2024-01-16T08:35:10;-0.30;99.90
15239;DHT22;7722;53.274;9.500;2024-01-16T08:37:37;-0.40;99.90
15239;DHT22;7722;53.274;9.500;2024-01-16T08:40:05;-0.30;99.90
15239;DHT22;7722;53.274;9.500;2024-01-16T08:42:33;-0.30;99.90
15239;DHT22;7722;53.274;9.500;2024-01-16T08:45:00;-0.20;99.90
15239;DHT22;7722;53.274;9.500;2024-01-16T08:49:56;-0.10;99.90
15239;DHT22;7722;53.274;9.500;2024-01-16T08:52:23;0.00;99.90
15239;DHT22;7722;53.274;9.500;2024-01-16T08:54:50;0.10;99.90
15239;DHT22;7722;53.274;9.500;2024-01-16T08:57:17;0.20;99.90
15239;DHT22;7722;53.274;9.500;2024-01-16T08:59:46;0.30;99.90
15239;DHT22;7722;53.274;9.500;2024-01-16T09:02:13;0.20;99.90
15239;DHT22;7722;53.274;9.500;2024-01-16T09:04:40;0.20;99.90
15239;DHT22;7722;53.274;9.500;2024-01-16T09:07:07;0.20;99.90
15239;DHT22;7722;53.274;9.500;2024-01-16T09:09:34;0.30;99.90
15239;DHT22;7722;53.274;9.500;2024-01-16T09:12:02;0.40;99.90
15239;DHT22;7722;53.274;9.500;2024-01-16T09:14:29;0.40;99.90
15239;DHT22;7722;53.274;9.500;2024-01-16T09:16:57;0.40;99.90
15239;DHT22;7722;53.274;9.500;2024-01-16T09:19:24;0.40;99.90
15239;DHT22;7722;53.274;9.500;2024-01-16T09:21:52;0.30;99.90
15239;DHT22;7722;53.274;9.500;2024-01-16T09:24:19;0.40;99.90
15239;DHT22;7722;53.274;9.500;2024-01-16T09:26:46;0.40;99.90
15239;DHT22;7722;53.274;9.500;2024-01-16T09:29:13;0.40;99.90
15239;DHT22;7722;53.274;9.500;2024-01-16T09:31:42;0.40;99.90
15239;DHT22;7722;53.274;9.500;2024-01-16T09:34:11;0.50;99.90
15239;DHT22;7722;53.274;9.500;2024-01-16T09:36:39;0.60;99.90
15239;DHT22;7722;53.274;9.500;2024-01-16T09:39:06;0.70;99.90
15239;DHT22;7722;53.274;9.500;2024-01-16T09:41:34;0.70;99.90
15239;DHT22;7722;53.274;9.500;2024-01-16T09:44:01;0.50;99.90
15239;DHT22;7722;53.274;9.500;2024-01-16T09:46:31;0.40;99.90
15239;DHT22;7722;53.274;9.500;2024-01-16T09:49:00;0.50;99.90
15239;DHT22;7722;53.274;9.500;2024-01-16T09:51:29;0.60;99.90
15239;DHT22;7722;53.274;9.500;2024-01-16T09:53:56;0.60;99.90
15239;DHT22;7722;53.274;9.500;2024-01-16T09:56:24;0.70;99.90
15239;DHT22;7722;53.274;9.500;2024-01-16T09:58:56;0.70;99.90
15239;DHT22;7722;53.274;9.500;2024-01-16T10:01:26;0.80;99.90
15239;DHT22;7722;53.274;9.500;2024-01-16T10:03:53;0.90;99.90
15239;DHT22;7722;53.274;9.500;2024-01-16T10:06:20;0.90;99.90
15239;DHT22;7722;53.274;9.500;2024-01-16T10:08:51;0.90;99.90
15239;DHT22;7722;53.274;9.500;2024-01-16T10:11:18;0.70;99.90
15239;DHT22;7722;53.274;9.500;2024-01-16T10:13:45;0.60;99.90
15239;DHT22;7722;53.274;9.500;2024-01-16T10:16:12;0.60;99.90
15239;DHT22;7722;53.274;9.500;2024-01-16T10:18:40;0.70;99.90
15239;DHT22;7722;53.274;9.500;2024-01-16T10:21:20;0.80;99.90
15239;DHT22;7722;53.274;9.500;2024-01-16T10:23:48;0.80;99.90
15239;DHT22;7722;53.274;9.500;2024-01-16T10:26:17;0.90;99.90
15239;DHT22;7722;53.274;9.500;2024-01-16T10:28:44;1.00;99.90
15239;DHT22;7722;53.274;9.500;2024-01-16T10:31:12;0.90;99.90
15239;DHT22;7722;53.274;9.500;2024-01-16T10:33:40;0.90;99.90
15239;DHT22;7722;53.274;9.500;2024-01-16T10:36:09;0.90;99.90
15239;DHT22;7722;53.274;9.500;2024-01-16T10:38:37;0.90;99.90
15239;DHT22;7722;53.274;9.500;2024-01-16T10:41:14;0.90;99.90
15239;DHT22;7722;53.274;9.500;2024-01-16T10:43:44;1.00;99.90
15239;DHT22;7722;53.274;9.500;2024-01-16T10:46:12;1.10;99.90
15239;DHT22;7722;53.274;9.500;2024-01-16T10:48:42;1.30;99.90
15239;DHT22;7722;53.274;9.500;2024-01-16T10:51:10;1.30;99.90
15239;DHT22;7722;53.274;9.500;2024-01-16T10:53:42;1.30;99.90
15239;DHT22;7722;53.274;9.500;2024-01-16T10:56:11;1.40;99.90
15239;DHT22;7722;53.274;9.500;2024-01-16T10:58:41;1.40;99.90
15239;DHT22;7722;53.274;9.500;2024-01-16T11:01:10;1.30;99.90
15239;DHT22;7722;53.274;9.500;2024-01-16T11:03:40;1.50;99.90
15239;DHT22;7722;53.274;9.500;2024-01-16T11:06:10;1.80;99.90
15239;DHT22;7722;53.274;9.500;2024-01-16T11:08:39;1.70;99.90
15239;DHT22;7722;53.274;9.500;2024-01-16T11:11:07;1.60;99.90
15239;DHT22;7722;53.274;9.500;2024-01-16T11:13:35;1.60;99.90
15239;DHT22;7722;53.274;9.500;2024-01-16T11:16:03;1.70;99.90
15239;DHT22;7722;53.274;9.500;2024-01-16T11:18:32;1.70;99.90
15239;DHT22;7722;53.274;9.500;2024-01-16T11:21:01;1.90;99.90
15239;DHT22;7722;53.274;9.500;2024-01-16T11:23:29;1.70;99.90
15239;DHT22;7722;53.274;9.500;2024-01-16T11:25:57;1.70;99.90
15239;DHT22;7722;53.274;9.500;2024-01-16T11:28:27;1.50;99.90
15239;DHT22;7722;53.274;9.500;2024-01-16T11:30:56;1.70;99.90
15239;DHT22;7722;53.274;9.500;2024-01-16T11:33:43;1.80;99.90
15239;DHT22;7722;53.274;9.500;2024-01-16T11:36:47;1.90;99.90
15239;DHT22;7722;53.274;9.500;2024-01-16T11:39:19;1.70;99.90
15239;DHT22;7722;53.274;9.500;2024-01-16T11:41:51;1.80;99.90
15239;DHT22;7722;53.274;9.500;2024-01-16T11:44:40;1.80;99.90
15239;DHT22;7722;53.274;9.500;2024-01-16T11:47:08;1.90;99.90
15239;DHT22;7722;53.274;9.500;2024-01-16T11:49:37;1.70;99.90
15239;DHT22;7722;53.274;9.500;2024-01-16T11:52:04;1.90;99.90
15239;DHT22;7722;53.274;9.500;2024-01-16T11:54:33;1.70;99.90
15239;DHT22;7722;53.274;9.500;2024-01-16T12:00:19;2.00;99.90
15239;DHT22;7722;53.274;9.500;2024-01-16T12:02:52;1.80;99.90
15239;DHT22;7722;53.274;9.500;2024-01-16T12:05:21;1.60;99.90
15239;DHT22;7722;53.274;9.500;2024-01-16T12:07:50;1.80;99.90
15239;DHT22;7722;53.274;9.500;2024-01-16T12:10:19;2.10;99.90
15239;DHT22;7722;53.274;9.500;2024-01-16T12:12:47;2.20;99.90
15239;DHT22;7722;53.274;9.500;2024-01-16T12:15:16;2.30;99.90
15239;DHT22;7722;53.274;9.500;2024-01-16T12:17:56;2.20;99.90
15239;DHT22;7722;53.274;9.500;2024-01-16T12:20:26;2.10;99.90
15239;DHT22;7722;53.274;9.500;2024-01-16T12:22:55;2.00;99.90
15239;DHT22;7722;53.274;9.500;2024-01-16T12:25:22;1.80;99.90
15239;DHT22;7722;53.274;9.500;2024-01-16T12:27:57;1.90;99.90
15239;DHT22;7722;53.274;9.500;2024-01-16T12:30:29;1.90;99.90
15239;DHT22;7722;53.274;9.500;2024-01-16T12:33:04;1.70;99.90
15239;DHT22;7722;53.274;9.500;2024-01-16T12:35:34;1.60;99.90
15239;DHT22;7722;53.274;9.500;2024-01-16T12:38:02;1.70;99.90
15239;DHT22;7722;53.274;9.500;2024-01-16T12:40:31;1.70;99.90
15239;DHT22;7722;53.274;9.500;2024-01-16T12:42:59;1.70;99.90
15239;DHT22;7722;53.274;9.500;2024-01-16T12:45:26;1.60;99.90
15239;DHT22;7722;53.274;9.500;2024-01-16T12:47:54;1.40;99.90
15239;DHT22;7722;53.274;9.500;2024-01-16T12:50:24;1.30;99.90
15239;DHT22;7722;53.274;9.500;2024-01-16T12:53:02;1.40;99.90
15239;DHT22;7722;53.274;9.500;2024-01-16T12:55:30;1.30;99.90
15239;DHT22;7722;53.274;9.500;2024-01-16T12:58:14;1.30;99.90
15239;DHT22;7722;53.274;9.500;2024-01-16T13:00:42;1.30;99.90
15239;DHT22;7722;53.274;9.500;2024-01-16T13:03:15;1.40;99.90
15239;DHT22;7722;53.274;9.500;2024-01-16T13:05:43;1.40;99.90
15239;DHT22;7722;53.274;9.500;2024-01-16T13:08:19;1.40;99.90
15239;DHT22;7722;53.274;9.500;2024-01-16T13:10:47;1.40;99.90
15239;DHT22;7722;53.274;9.500;2024-01-16T13:13:15;1.40;99.90
15239;DHT22;7722;53.274;9.500;2024-01-16T13:15:43;1.10;99.90
15239;DHT22;7722;53.274;9.500;2024-01-16T13:18:18;1.10;99.90
15239;DHT22;7722;53.274;9.500;2024-01-16T13:20:46;1.10;99.90
15239;DHT22;7722;53.274;9.500;2024-01-16T13:23:14;1.20;99.90
15239;DHT22;7722;53.274;9.500;2024-01-16T13:25:44;1.20;99.90
15239;DHT22;7722;53.274;9.500;2024-01-16T13:28:11;1.10;99.90
15239;DHT22;7722;53.274;9.500;2024-01-16T13:30:39;1.20;99.90
15239;DHT22;7722;53.274;9.500;2024-01-16T13:33:07;1.20;99.90
15239;DHT22;7722;53.274;9.500;2024-01-16T13:35:35;1.20;99.90
15239;DHT22;7722;53.274;9.500;2024-01-16T13:38:03;1.20;99.90
15239;DHT22;7722;53.274;9.500;2024-01-16T13:40:30;1.10;99.90
15239;DHT22;7722;53.274;9.500;2024-01-16T13:42:59;1.10;99.90
15239;DHT22;7722;53.274;9.500;2024-01-16T13:45:26;1.20;99.90
15239;DHT22;7722;53.274;9.500;2024-01-16T13:47:54;1.10;99.90
15239;DHT22;7722;53.274;9.500;2024-01-16T13:50:21;1.10;99.90
15239;DHT22;7722;53.274;9.500;2024-01-16T13:52:48;1.20;99.90
15239;DHT22;7722;53.274;9.500;2024-01-16T13:55:16;0.90;99.90
15239;DHT22;7722;53.274;9.500;2024-01-16T13:57:43;1.10;99.90
15239;DHT22;7722;53.274;9.500;2024-01-16T14:00:13;1.10;99.90
15239;DHT22;7722;53.274;9.500;2024-01-16T14:02:41;1.10;99.90
15239;DHT22;7722;53.274;9.500;2024-01-16T14:05:09;1.10;99.90
15239;DHT22;7722;53.274;9.500;2024-01-16T14:07:37;1.10;99.90
15239;DHT22;7722;53.274;9.500;2024-01-16T14:10:05;1.00;99.90
15239;DHT22;7722;53.274;9.500;2024-01-16T14:12:35;1.00;99.90
15239;DHT22;7722;53.274;9.500;2024-01-16T14:15:03;1.00;99.90
15239;DHT22;7722;53.274;9.500;2024-01-16T14:17:37;1.00;99.90
15239;DHT22;7722;53.274;9.500;2024-01-16T14:20:05;1.00;99.90
15239;DHT22;7722;53.274;9.500;2024-01-16T14:22:36;0.90;99.90
15239;DHT22;7722;53.274;9.500;2024-01-16T14:25:06;0.90;99.90
15239;DHT22;7722;53.274;9.500;2024-01-16T14:27:37;0.90;99.90
15239;DHT22;7722;53.274;9.500;2024-01-16T14:30:06;0.90;99.90
15239;DHT22;7722;53.274;9.500;2024-01-16T14:32:38;0.90;99.90
15239;DHT22;7722;53.274;9.500;2024-01-16T14:35:07;1.00;99.90
15239;DHT22;7722;53.274;9.500;2024-01-16T14:37:35;1.00;99.90
15239;DHT22;7722;53.274;9.500;2024-01-16T14:40:04;1.00;99.90
15239;DHT22;7722;53.274;9.500;2024-01-16T14:42:38;1.10;99.90
15239;DHT22;7722;53.274;9.500;2024-01-16T14:45:06;1.10;99.90
15239;DHT22;7722;53.274;9.500;2024-01-16T14:50:02;0.90;99.90
15239;DHT22;7722;53.274;9.500;2024-01-16T14:52:30;0.90;99.90
15239;DHT22;7722;53.274;9.500;2024-01-16T14:54:58;1.00;99.90
15239;DHT22;7722;53.274;9.500;2024-01-16T14:57:25;0.90;99.90
15239;DHT22;7722;53.274;9.500;2024-01-16T14:59:52;1.00;99.90
15239;DHT22;7722;53.274;9.500;2024-01-16T15:02:20;1.00;99.90
15239;DHT22;7722;53.274;9.500;2024-01-16T15:04:47;0.90;99.90
15239;DHT22;7722;53.274;9.500;2024-01-16T15:07:15;0.90;99.90
15239;DHT22;7722;53.274;9.500;2024-01-16T15:09:42;0.90;99.90
15239;DHT22;7722;53.274;9.500;2024-01-16T15:12:10;0.90;99.90
15239;DHT22;7722;53.274;9.500;2024-01-16T15:14:39;0.90;99.90
15239;DHT22;7722;53.274;9.500;2024-01-16T15:17:06;0.90;99.90
15239;DHT22;7722;53.274;9.500;2024-01-16T15:19:33;0.90;99.90
15239;DHT22;7722;53.274;9.500;2024-01-16T15:22:00;0.90;99.90
15239;DHT22;7722;53.274;9.500;2024-01-16T15:24:29;1.00;99.90
15239;DHT22;7722;53.274;9.500;2024-01-16T15:26:56;0.90;99.90
15239;DHT22;7722;53.274;9.500;2024-01-16T15:29:23;0.90;99.90
15239;DHT22;7722;53.274;9.500;2024-01-16T15:31:51;0.90;99.90
15239;DHT22;7722;53.274;9.500;2024-01-16T15:34:19;0.80;99.90
15239;DHT22;7722;53.274;9.500;2024-01-16T15:36:46;0.80;99.90
15239;DHT22;7722;53.274;9.500;2024-01-16T15:39:13;0.80;99.90
15239;DHT22;7722;53.274;9.500;2024-01-16T15:41:43;0.80;99.90
15239;DHT22;7722;53.274;9.500;2024-01-16T15:44:11;0.70;99.90
15239;DHT22;7722;53.274;9.500;2024-01-16T15:46:55;0.80;99.90
15239;DHT22;7722;53.274;9.500;2024-01-16T15:49:23;0.70;99.90
15239;DHT22;7722;53.274;9.500;2024-01-16T15:51:50;0.70;99.90
15239;DHT22;7722;53.274;9.500;2024-01-16T15:54:17;0.70;99.90
15239;DHT22;7722;53.274;9.500;2024-01-16T15:56:46;0.70;99.90
15239;DHT22;7722;53.274;9.500;2024-01-16T15:59:13;0.70;99.90
15239;DHT22;7722;53.274;9.500;2024-01-16T16:01:41;0.70;99.90
15239;DHT22;7722;53.274;9.500;2024-01-16T16:04:08;0.70;99.90
15239;DHT22;7722;53.274;9.500;2024-01-16T16:06:37;0.60;99.90